Terminal Aerodrome Forecast
Issued by NWS

Home | Current Version | Previous Version | Text Only | Print | Product List | Glossary On
Versions: 1 2 3 4 5 6 7 8 9 10 11 12 13 14
000
FTAK31 PAJN 280500
TAFAPG
TAF
PAPG 280521Z 2806/2906 28006KT P6SM BKN060
     FM281200 VRB03KT P6SM BKN015 BKN060
     FM281700 04006KT P6SM FEW020 BKN070
     FM290200 VRB03KT P6SM FEW020 BKN060
      AMD LTD TO CLD VIS AND WIND 2806/2815=

USA.gov is the U.S. government's official web portal to all federal, state and local government web resources and services.